Time;durP1;ratioP1;P1;durP2;ratioP2;P2;SDS_P1;SDS_P2;PMS_P1;PMS_P2;Temp;Humidity;BMP_temperature;BMP_pressure;BME280_temperature;BME280_humidity;BME280_pressure;Samples;Min_cycle;Max_cycle;Signal;HPM_P1;HPM_P2
2021/11/28 00:02:19;;;;;;;4.47;4.22;;;;;;;3.50;99.40;98400.09;6269414;22;20078;-78
2021/11/28 00:04:47;;;;;;;5.45;4.95;;;;;;;3.50;99.04;98400.91;6244008;22;20023;-78
2021/11/28 00:13:03;;;;;;;6.93;4.72;;;;;;;3.52;99.98;98396.53;6270081;22;20019;-78
2021/11/28 00:15:29;;;;;;;6.32;4.32;;;;;;;3.49;100.00;98396.66;6263131;22;20020;-78
2021/11/28 00:17:55;;;;;;;15.55;5.95;;;;;;;3.48;99.93;98389.00;6235587;22;20024;-79
2021/11/28 00:20:22;;;;;;;4.90;4.32;;;;;;;3.50;100.00;98382.84;6243124;22;20521;-78
2021/11/28 00:22:48;;;;;;;4.32;3.97;;;;;;;3.51;100.00;98391.44;6217770;22;20043;-79
2021/11/28 00:25:15;;;;;;;9.60;6.30;;;;;;;3.50;99.92;98392.34;6269787;22;20042;-79
2021/11/28 00:27:42;;;;;;;2.65;2.50;;;;;;;3.50;100.00;98382.03;6218119;22;20023;-78
2021/11/28 00:30:10;;;;;;;14.93;5.88;;;;;;;3.51;100.00;98394.84;6270022;22;20020;-78
2021/11/28 00:32:37;;;;;;;3.17;2.88;;;;;;;3.57;99.94;98388.53;6242864;22;20066;-78
2021/11/28 00:35:05;;;;;;;4.90;4.50;;;;;;;3.55;100.00;98391.22;6270565;22;20022;-78
2021/11/28 00:37:31;;;;;;;11.20;6.18;;;;;;;3.57;100.00;98367.91;6217808;22;20495;-79
2021/11/28 00:39:57;;;;;;;8.70;4.55;;;;;;;3.62;100.00;98386.56;6242672;22;20016;-77
2021/11/28 00:42:23;;;;;;;13.18;9.30;;;;;;;3.60;99.69;98381.47;6269932;22;20050;-77
2021/11/28 00:44:49;;;;;;;22.80;10.63;;;;;;;3.65;100.00;98383.84;6242865;22;20095;-79
2021/11/28 00:47:15;;;;;;;6.88;4.90;;;;;;;3.63;100.00;98389.06;6243328;22;20019;-77
2021/11/28 00:49:51;;;;;;;4.70;4.30;;;;;;;3.67;100.00;98387.16;6242859;22;20082;-78
2021/11/28 00:52:17;;;;;;;8.23;5.68;;;;;;;3.67;99.97;98382.00;6220574;22;20020;-77
2021/11/28 00:54:43;;;;;;;9.27;5.57;;;;;;;3.70;99.31;98387.00;6218463;22;20016;-77
2021/11/28 00:57:10;;;;;;;9.70;5.95;;;;;;;3.71;99.91;98391.25;6244545;22;20531;-77
2021/11/28 00:59:36;;;;;;;10.23;7.00;;;;;;;3.68;99.52;98375.94;6274804;22;20015;-78
2021/11/28 01:02:02;;;;;;;9.70;7.28;;;;;;;3.70;99.07;98394.75;6207116;22;20063;-77
2021/11/28 01:04:28;;;;;;;7.75;6.60;;;;;;;3.73;99.32;98384.25;6258164;22;20020;-78
2021/11/28 01:06:54;;;;;;;4.90;4.18;;;;;;;3.75;98.87;98387.63;6279072;22;20011;-77
2021/11/28 01:09:22;;;;;;;5.50;4.40;;;;;;;3.75;99.18;98387.63;6270647;22;20039;-77
2021/11/28 01:11:48;;;;;;;2.95;2.85;;;;;;;3.76;98.96;98389.31;6244468;22;20024;-76
2021/11/28 01:14:14;;;;;;;10.95;6.78;;;;;;;3.74;99.63;98380.78;6272390;22;20020;-76
2021/11/28 01:16:43;;;;;;;11.15;6.78;;;;;;;3.76;98.89;98381.56;6271850;22;20020;-77
2021/11/28 01:19:10;;;;;;;4.88;4.20;;;;;;;3.78;99.50;98387.47;6219447;22;20023;-76
2021/11/28 01:21:37;;;;;;;4.35;4.00;;;;;;;3.79;99.40;98378.81;6271449;22;20050;-76
2021/11/28 01:24:03;;;;;;;5.82;5.20;;;;;;;3.79;99.16;98383.13;6244931;22;20096;-77
2021/11/28 01:26:31;;;;;;;6.45;5.72;;;;;;;3.81;99.18;98376.13;6244585;22;20027;-77
2021/11/28 01:28:58;;;;;;;9.52;5.85;;;;;;;3.83;99.06;98385.47;6245146;22;20039;-81
2021/11/28 01:31:27;;;;;;;5.43;4.90;;;;;;;3.85;98.92;98378.50;6272320;22;20022;-80
2021/11/28 01:33:53;;;;;;;14.27;7.93;;;;;;;3.87;98.51;98380.97;6245397;22;20348;-77
2021/11/28 01:36:19;;;;;;;5.43;4.88;;;;;;;3.84;98.84;98376.81;6194457;22;20020;-78
2021/11/28 01:38:46;;;;;;;8.48;4.85;;;;;;;3.88;99.03;98378.34;6239755;22;20075;-76
2021/11/28 01:41:12;;;;;;;6.82;5.18;;;;;;;3.87;98.78;98380.97;6244103;22;20020;-77
2021/11/28 01:43:39;;;;;;;7.20;4.15;;;;;;;3.91;98.76;98380.75;6196119;22;20042;-77
2021/11/28 01:46:05;;;;;;;5.78;4.88;;;;;;;3.93;98.34;98388.41;6273783;22;20019;-76
2021/11/28 01:48:31;;;;;;;7.88;6.20;;;;;;;3.91;98.91;98373.00;6245042;22;20126;-79
2021/11/28 01:51:02;;;;;;;6.70;6.05;;;;;;;3.95;98.68;98384.03;6244681;22;20020;-78
2021/11/28 01:53:28;;;;;;;6.72;5.65;;;;;;;3.93;98.60;98370.34;6244887;22;20475;-79
2021/11/28 01:55:55;;;;;;;11.60;5.75;;;;;;;3.95;98.61;98379.69;6244738;22;20011;-78
2021/11/28 01:58:32;;;;;;;5.15;4.47;;;;;;;3.97;98.95;98388.19;6269696;22;20035;-78
2021/11/28 02:01:00;;;;;;;2.58;2.47;;;;;;;3.96;98.99;98378.75;6244471;22;20016;-77
2021/11/28 02:03:27;;;;;;;4.07;3.67;;;;;;;3.97;99.08;98383.00;6270171;22;20027;-77
2021/11/28 02:05:56;;;;;;;5.45;4.28;;;;;;;3.99;98.65;98383.75;6243918;22;20019;-78
2021/11/28 02:08:24;;;;;;;5.35;4.18;;;;;;;4.01;98.65;98379.38;6218164;22;20367;-78
2021/11/28 02:10:50;;;;;;;3.75;3.40;;;;;;;4.04;98.67;98378.38;6242585;22;20019;-78
2021/11/28 02:13:36;;;;;;;3.95;3.03;;;;;;;4.05;98.25;98391.22;6225990;22;20103;-79
2021/11/28 02:16:06;;;;;;;4.60;4.00;;;;;;;4.07;98.21;98379.03;6218167;22;20066;-78
2021/11/28 02:18:33;;;;;;;16.08;6.90;;;;;;;4.10;97.98;98378.88;6242306;22;20077;-78
2021/11/28 02:21:01;;;;;;;5.40;4.90;;;;;;;4.12;98.25;98379.63;6214741;22;20460;-79
2021/11/28 02:23:29;;;;;;;6.63;5.82;;;;;;;4.15;98.00;98382.06;6217641;22;20023;-79
2021/11/28 02:25:59;;;;;;;7.97;5.38;;;;;;;4.13;97.98;98383.88;6242684;22;20011;-79
2021/11/28 02:28:26;;;;;;;2.67;2.55;;;;;;;4.09;97.54;98374.63;6237593;23;20018;-79
2021/11/28 02:30:52;;;;;;;5.95;5.45;;;;;;;4.16;97.82;98388.88;6233821;22;20016;-78
2021/11/28 02:33:18;;;;;;;4.40;4.05;;;;;;;4.19;97.86;98383.56;6218097;22;20474;-77
2021/11/28 02:35:47;;;;;;;9.07;5.68;;;;;;;4.22;97.59;98385.16;6242626;22;20054;-79
2021/11/28 02:38:14;;;;;;;3.92;3.58;;;;;;;4.22;97.57;98389.50;6217514;22;20023;-79
2021/11/28 02:40:41;;;;;;;11.00;7.63;;;;;;;4.28;96.83;98386.59;6217609;22;20098;-79
2021/11/28 02:43:07;;;;;;;2.83;2.63;;;;;;;4.31;96.97;98383.84;6244338;22;20360;-80
2021/11/28 02:45:34;;;;;;;7.90;6.70;;;;;;;4.27;96.77;98379.75;6273183;22;20050;-79
2021/11/28 02:48:02;;;;;;;8.07;4.65;;;;;;;4.32;96.45;98393.25;6251356;22;20019;-81
2021/11/28 02:50:28;;;;;;;3.60;3.38;;;;;;;4.35;96.48;98370.66;6276215;22;20022;-81
2021/11/28 02:52:56;;;;;;;3.47;2.88;;;;;;;4.37;96.72;98388.66;6269698;22;20015;-79
2021/11/28 02:55:29;;;;;;;9.40;8.38;;;;;;;4.37;96.85;98383.50;6217702;22;20043;-77
2021/11/28 02:57:56;;;;;;;7.68;6.05;;;;;;;4.39;96.47;98389.41;6242452;22;20368;-78
2021/11/28 03:00:22;;;;;;;9.02;5.45;;;;;;;4.45;96.78;98394.28;6216965;22;20022;-78
2021/11/28 03:02:48;;;;;;;4.70;3.83;;;;;;;4.42;95.99;98395.25;6242558;22;20045;-78
2021/11/28 03:05:26;;;;;;;11.80;8.00;;;;;;;4.47;96.01;98387.25;6242394;22;20459;-79
2021/11/28 03:07:54;;;;;;;7.40;4.88;;;;;;;4.44;96.55;98384.84;6217877;22;20019;-77
2021/11/28 03:10:36;;;;;;;5.45;5.05;;;;;;;4.46;96.05;98385.59;6243088;22;20026;-78
2021/11/28 03:13:05;;;;;;;2.90;2.75;;;;;;;4.48;96.06;98394.09;6243546;22;20015;-78
2021/11/28 03:15:31;;;;;;;4.68;4.15;;;;;;;4.49;96.30;98393.16;6243631;22;20027;-79
2021/11/28 03:17:59;;;;;;;5.93;4.60;;;;;;;4.47;95.82;98400.19;6269328;22;20356;-79
2021/11/28 03:20:26;;;;;;;4.68;4.18;;;;;;;4.47;96.06;98387.25;6218155;22;20463;-78
2021/11/28 03:22:52;;;;;;;11.48;7.15;;;;;;;4.51;96.36;98406.84;6168544;22;20030;-79
2021/11/28 03:25:19;;;;;;;2.95;2.85;;;;;;;4.51;96.00;98417.19;6217903;22;20464;-78
2021/11/28 03:27:45;;;;;;;2.78;2.65;;;;;;;4.52;95.81;98418.84;6243267;22;20015;-80
2021/11/28 03:30:12;;;;;;;4.22;3.78;;;;;;;4.49;96.07;98406.09;6243451;22;20019;-80
2021/11/28 03:33:01;;;;;;;5.53;4.75;;;;;;;4.61;95.49;98414.00;6213007;22;20103;-79
2021/11/28 03:35:43;;;;;;;6.18;5.70;;;;;;;4.60;95.32;98420.13;6268192;22;20027;-78
2021/11/28 03:38:09;;;;;;;3.13;2.95;;;;;;;4.60;95.38;98422.69;6270501;22;20337;-79
2021/11/28 03:40:37;;;;;;;5.95;5.45;;;;;;;4.60;95.41;98424.44;6242601;22;20413;-81
2021/11/28 03:43:04;;;;;;;5.72;4.50;;;;;;;4.59;95.72;98433.94;6193342;22;20475;-80
2021/11/28 03:45:30;;;;;;;4.78;4.47;;;;;;;4.72;94.75;98428.94;6218925;22;20110;-79
2021/11/28 03:48:04;;;;;;;4.65;4.28;;;;;;;4.65;95.35;98436.19;6218879;22;20019;-79
2021/11/28 03:50:36;;;;;;;2.88;2.72;;;;;;;4.67;95.50;98436.97;6221334;22;20110;-81
2021/11/28 03:53:02;;;;;;;8.75;6.40;;;;;;;4.70;95.48;98423.03;6243845;22;20069;-81
2021/11/28 03:55:28;;;;;;;5.45;5.03;;;;;;;4.70;95.77;98425.63;6243406;22;20015;-81
2021/11/28 03:57:54;;;;;;;14.77;5.20;;;;;;;4.66;95.60;98424.94;6269923;22;20020;-79
2021/11/28 04:00:20;;;;;;;5.85;5.32;;;;;;;4.66;95.78;98429.28;6243822;22;20039;-80
2021/11/28 04:02:47;;;;;;;5.85;4.90;;;;;;;4.69;95.71;98434.28;6270693;22;20042;-78
2021/11/28 04:05:15;;;;;;;4.47;4.20;;;;;;;4.64;95.83;98438.88;6268857;22;20031;-79
2021/11/28 04:07:45;;;;;;;3.70;2.80;;;;;;;4.62;95.58;98438.09;6242792;22;20020;-81
2021/11/28 04:10:14;;;;;;;2.97;2.72;;;;;;;4.62;95.90;98445.84;6264141;22;20027;-80
2021/11/28 04:12:40;;;;;;;3.05;2.88;;;;;;;4.57;96.68;98445.28;6206543;23;20016;-79
2021/11/28 04:15:07;;;;;;;7.35;6.70;;;;;;;4.55;97.21;98449.69;6241777;22;20020;-81
2021/11/28 04:17:33;;;;;;;4.85;4.07;;;;;;;4.54;97.42;98456.63;6263929;22;20024;-80
2021/11/28 04:20:05;;;;;;;6.00;5.47;;;;;;;4.53;97.51;98454.94;6240076;22;20558;-79
2021/11/28 04:22:31;;;;;;;14.68;6.15;;;;;;;4.48;97.66;98461.28;6242444;22;20023;-78
2021/11/28 04:24:58;;;;;;;5.35;3.90;;;;;;;4.42;98.18;98451.25;6217714;22;20019;-77
2021/11/28 04:27:24;;;;;;;5.38;4.93;;;;;;;4.41;98.20;98465.09;6270152;22;20023;-79
2021/11/28 04:29:50;;;;;;;5.38;4.90;;;;;;;4.39;98.30;98466.91;6218068;22;20693;-80
2021/11/28 04:32:16;;;;;;;3.60;3.22;;;;;;;4.35;98.35;98468.00;6263341;22;20062;-80
2021/11/28 04:34:55;;;;;;;4.30;3.90;;;;;;;4.42;98.31;98474.50;6238092;22;20126;-80
2021/11/28 04:37:22;;;;;;;8.95;6.53;;;;;;;4.39;98.65;98482.41;6238243;22;20020;-79
2021/11/28 04:39:48;;;;;;;4.28;4.05;;;;;;;4.40;98.21;98476.31;6232285;23;20050;-82
2021/11/28 04:42:14;;;;;;;5.38;4.82;;;;;;;4.38;98.22;98476.44;6270332;22;20372;-79
2021/11/28 04:44:44;;;;;;;3.10;3.00;;;;;;;4.43;98.88;98481.34;6214464;23;20113;-79
2021/11/28 04:47:10;;;;;;;8.20;7.20;;;;;;;4.43;98.36;98483.91;6244467;22;20023;-79
2021/11/28 04:49:37;;;;;;;5.72;4.53;;;;;;;4.44;98.46;98478.69;6245046;22;20050;-77
2021/11/28 04:52:05;;;;;;;13.93;9.32;;;;;;;4.50;98.29;98480.09;6220104;22;20680;-76
2021/11/28 04:54:31;;;;;;;5.43;5.00;;;;;;;4.48;98.31;98494.88;6245030;22;20016;-76
2021/11/28 04:56:57;;;;;;;7.38;5.85;;;;;;;4.50;98.57;98495.59;6216209;22;20104;-76
2021/11/28 04:59:24;;;;;;;5.85;5.30;;;;;;;4.51;98.28;98492.97;6245260;22;20015;-76
2021/11/28 05:01:50;;;;;;;3.28;3.00;;;;;;;4.52;97.94;98498.94;6194593;22;20012;-75
2021/11/28 05:04:19;;;;;;;9.55;5.88;;;;;;;4.49;97.86;98497.34;6245408;22;20086;-77
2021/11/28 05:07:05;;;;;;;4.75;4.45;;;;;;;4.50;98.44;98496.44;6249623;22;20107;-78
2021/11/28 05:09:36;;;;;;;9.80;7.47;;;;;;;4.55;98.45;98506.53;6221492;22;20368;-77
2021/11/28 05:12:03;;;;;;;12.10;8.82;;;;;;;4.52;98.45;98509.28;6270387;22;20024;-76
2021/11/28 05:14:30;;;;;;;7.22;6.55;;;;;;;4.51;98.20;98518.78;6253543;22;20073;-76
2021/11/28 05:16:57;;;;;;;14.90;7.95;;;;;;;4.51;98.09;98517.97;6233171;22;20030;-76
2021/11/28 05:19:37;;;;;;;7.22;6.38;;;;;;;4.53;98.62;98521.28;6257568;22;20026;-78
2021/11/28 05:22:03;;;;;;;5.50;5.13;;;;;;;4.59;98.02;98531.28;6274687;22;20015;-77
2021/11/28 05:24:38;;;;;;;4.32;4.07;;;;;;;4.60;98.30;98531.22;6220151;22;20407;-79
2021/11/28 05:27:05;;;;;;;5.45;5.15;;;;;;;4.59;97.94;98526.97;6194757;22;20046;-79
2021/11/28 05:29:33;;;;;;;10.45;6.63;;;;;;;4.66;97.78;98530.06;6245661;22;20026;-78
2021/11/28 05:32:00;;;;;;;7.68;5.82;;;;;;;4.62;97.88;98525.97;6244784;22;20016;-79
2021/11/28 05:34:35;;;;;;;8.45;7.22;;;;;;;4.65;97.24;98530.97;6271979;22;20019;-77
2021/11/28 05:37:24;;;;;;;3.80;3.58;;;;;;;4.63;97.27;98532.81;6171219;22;20707;-77
2021/11/28 05:39:57;;;;;;;4.90;4.50;;;;;;;4.61;97.35;98537.25;6243748;22;20019;-79
2021/11/28 05:42:23;;;;;;;7.97;5.65;;;;;;;4.66;97.64;98537.81;6223216;22;20048;-78
2021/11/28 05:44:50;;;;;;;5.88;5.38;;;;;;;4.64;97.72;98540.50;6247684;22;20027;-77
2021/11/28 05:47:34;;;;;;;6.72;4.97;;;;;;;4.72;97.38;98542.66;6271864;22;20020;-77
2021/11/28 05:50:20;;;;;;;4.80;3.97;;;;;;;4.73;97.29;98552.09;6270992;22;20015;-77
2021/11/28 05:52:49;;;;;;;3.43;3.23;;;;;;;4.68;97.17;98541.97;6244905;22;20042;-77
2021/11/28 05:55:15;;;;;;;6.32;4.28;;;;;;;4.76;96.44;98558.84;6219033;22;20647;-76
2021/11/28 05:57:46;;;;;;;4.35;3.53;;;;;;;4.76;96.36;98564.00;6242118;22;20027;-78
2021/11/28 06:00:14;;;;;;;4.50;4.22;;;;;;;4.76;96.63;98564.00;6242210;22;20091;-78
2021/11/28 06:02:53;;;;;;;3.75;3.53;;;;;;;4.81;96.08;98568.03;6268689;22;20018;-76
2021/11/28 06:05:43;;;;;;;3.25;3.10;;;;;;;4.86;95.79;98578.97;6241770;22;20031;-75
2021/11/28 06:08:28;;;;;;;4.30;3.97;;;;;;;4.82;95.69;98574.88;6224081;22;20019;-77
2021/11/28 06:10:58;;;;;;;10.87;5.57;;;;;;;4.90;95.41;98583.06;6217078;22;20368;-77
2021/11/28 06:13:24;;;;;;;4.88;4.57;;;;;;;4.92;94.98;98580.41;6219120;22;20047;-77
2021/11/28 06:16:11;;;;;;;3.70;3.45;;;;;;;4.93;95.35;98564.81;6208809;22;20019;-76
2021/11/28 06:19:01;;;;;;;3.60;3.38;;;;;;;5.03;94.22;98583.25;6234841;22;20024;-79
2021/11/28 06:22:08;;;;;;;2.55;2.45;;;;;;;5.02;94.36;98590.19;6207052;23;20092;-79
2021/11/28 06:24:42;;;;;;;11.40;5.53;;;;;;;5.01;94.76;98588.50;6182094;23;20052;-79
2021/11/28 06:27:14;;;;;;;3.45;2.35;;;;;;;5.03;94.22;98586.69;6243755;22;20023;-78
2021/11/28 06:29:40;;;;;;;5.13;4.53;;;;;;;4.99;94.88;98586.91;6244929;22;20015;-79
2021/11/28 06:32:07;;;;;;;3.10;2.90;;;;;;;5.04;94.50;98596.09;6244281;22;20012;-78
2021/11/28 06:34:42;;;;;;;3.42;3.22;;;;;;;5.06;94.25;98594.28;6271748;22;20460;-79
2021/11/28 06:37:46;;;;;;;2.50;2.40;;;;;;;5.08;93.95;98599.34;6176708;23;20024;-78
2021/11/28 06:40:30;;;;;;;3.53;3.33;;;;;;;5.06;93.82;98604.63;6257397;22;20050;-79
2021/11/28 06:43:00;;;;;;;10.95;9.07;;;;;;;5.11;93.20;98602.63;6194626;22;20464;-77
2021/11/28 06:45:26;;;;;;;3.67;3.38;;;;;;;5.15;92.27;98611.91;6244425;22;20138;-77
2021/11/28 06:47:53;;;;;;;8.50;6.53;;;;;;;5.12;91.55;98604.31;6269203;22;20018;-79
2021/11/28 06:50:20;;;;;;;7.10;6.45;;;;;;;5.16;91.52;98613.56;6269675;22;20091;-79
2021/11/28 06:52:46;;;;;;;5.13;4.30;;;;;;;5.11;91.84;98607.78;6243873;22;20111;-79
2021/11/28 06:55:25;;;;;;;4.70;4.10;;;;;;;5.10;90.91;98600.97;6247051;22;20351;-79
2021/11/28 06:58:09;;;;;;;7.25;6.55;;;;;;;5.10;90.25;98613.06;6223018;22;20024;-80
2021/11/28 07:00:36;;;;;;;1.83;1.73;;;;;;;5.08;90.45;98613.13;6244095;22;20016;-79
2021/11/28 07:03:02;;;;;;;5.47;5.05;;;;;;;5.11;89.23;98612.97;6218397;22;20024;-79
2021/11/28 07:05:47;;;;;;;4.68;4.38;;;;;;;5.09;89.32;98625.16;6248520;22;20078;-80
2021/11/28 07:08:14;;;;;;;2.42;1.92;;;;;;;5.06;88.66;98625.31;6244558;22;20023;-79
2021/11/28 07:10:40;;;;;;;3.72;3.47;;;;;;;5.06;88.00;98630.50;6244236;22;20020;-79
2021/11/28 07:13:14;;;;;;;3.00;2.80;;;;;;;5.10;86.46;98650.13;6244274;22;20049;-79
2021/11/28 07:15:40;;;;;;;3.92;2.83;;;;;;;5.09;86.68;98640.66;6269697;22;20054;-80
2021/11/28 07:18:10;;;;;;;2.88;2.72;;;;;;;5.13;86.31;98656.88;6169569;22;20020;-79
2021/11/28 07:20:56;;;;;;;4.50;4.10;;;;;;;5.09;85.61;98648.44;6242800;22;20097;-78
2021/11/28 07:23:22;;;;;;;2.03;1.92;;;;;;;5.10;85.61;98657.88;6215578;23;20130;-79
2021/11/28 07:25:49;;;;;;;1.38;1.35;;;;;;;5.07;85.01;98668.34;6233381;23;20433;-81
2021/11/28 07:28:24;;;;;;;2.70;2.60;;;;;;;5.05;85.78;98672.78;6233342;22;20114;-80
2021/11/28 07:30:51;;;;;;;1.95;1.88;;;;;;;5.08;84.94;98669.19;6239025;22;20016;-80
2021/11/28 07:33:38;;;;;;;1.35;1.35;;;;;;;5.15;83.25;98678.31;6222553;22;20079;-79
2021/11/28 07:36:24;;;;;;;1.27;1.27;;;;;;;5.13;83.43;98681.00;6208096;22;20019;-79
2021/11/28 07:38:50;;;;;;;5.93;4.10;;;;;;;5.14;82.75;98684.38;6244394;22;20051;-79
2021/11/28 07:41:16;;;;;;;3.53;3.15;;;;;;;5.10;83.39;98688.91;6241714;22;20015;-78
2021/11/28 07:43:51;;;;;;;2.25;2.13;;;;;;;5.06;82.90;98677.03;6217651;22;20106;-79
2021/11/28 07:46:37;;;;;;;2.08;2.00;;;;;;;5.01;83.58;98683.34;6271624;22;20016;-81
2021/11/28 07:49:14;;;;;;;3.30;2.97;;;;;;;4.97;83.74;98685.28;6246931;22;20019;-77
2021/11/28 07:51:40;;;;;;;3.95;3.65;;;;;;;4.97;83.22;98687.03;6193347;22;20015;-79
2021/11/28 07:54:12;;;;;;;1.33;1.33;;;;;;;4.99;83.16;98701.53;6243298;22;20062;-79
2021/11/28 07:56:39;;;;;;;2.28;2.13;;;;;;;4.95;82.69;98697.44;6243667;22;20028;-77
2021/11/28 07:59:23;;;;;;;1.55;1.55;;;;;;;4.99;83.15;98696.38;6247706;22;20023;-79
2021/11/28 08:01:50;;;;;;;2.50;2.33;;;;;;;4.92;83.11;98710.50;6243071;22;20023;-80
2021/11/28 08:04:35;;;;;;;1.13;1.13;;;;;;;4.95;81.23;98705.19;6226801;22;20023;-78
2021/11/28 08:07:20;;;;;;;3.65;3.35;;;;;;;4.92;80.67;98702.75;6242903;22;20535;-79
2021/11/28 08:10:06;;;;;;;1.00;1.00;;;;;;;4.91;81.26;98714.00;6222512;22;20034;-79
2021/11/28 08:12:33;;;;;;;1.33;1.25;;;;;;;4.94;79.57;98703.50;6243549;22;20129;-78
2021/11/28 08:14:59;;;;;;;2.15;2.05;;;;;;;4.96;79.77;98712.03;6243524;22;20015;-79
2021/11/28 08:17:25;;;;;;;0.85;0.85;;;;;;;4.98;78.40;98704.19;6218362;22;20051;-80
2021/11/28 08:19:51;;;;;;;1.23;0.95;;;;;;;5.03;77.72;98718.59;6244988;22;20027;-80
2021/11/28 08:22:18;;;;;;;0.73;0.73;;;;;;;5.03;78.04;98713.41;6244384;22;20041;-79
2021/11/28 08:24:44;;;;;;;1.77;1.67;;;;;;;5.03;78.22;98718.59;6219395;22;20051;-80
2021/11/28 08:27:11;;;;;;;1.58;1.45;;;;;;;4.98;78.34;98720.53;6270462;22;20773;-79
2021/11/28 08:29:38;;;;;;;0.50;0.50;;;;;;;4.97;78.86;98726.66;6272723;22;20153;-80
2021/11/28 08:32:19;;;;;;;;;;;;;;;5.02;77.55;98724.66;6245367;22;20012;-79
2021/11/28 08:35:03;;;;;;;0.80;0.80;;;;;;;4.99;78.76;98734.31;6270791;22;19937;-80
2021/11/28 08:37:40;;;;;;;0.80;0.80;;;;;;;4.98;78.92;98741.22;6218128;22;20024;-80
2021/11/28 08:40:08;;;;;;;1.02;1.02;;;;;;;4.99;78.87;98732.56;6245187;22;20068;-81
2021/11/28 08:42:34;;;;;;;7.68;1.60;;;;;;;4.95;79.38;98731.03;6272678;22;20035;-80
2021/11/28 08:45:01;;;;;;;1.73;1.63;;;;;;;5.00;78.58;98734.25;6244237;22;20024;-80
2021/11/28 08:47:28;;;;;;;1.38;1.38;;;;;;;4.97;78.96;98728.41;6243007;22;20020;-79
2021/11/28 08:49:55;;;;;;;1.25;1.25;;;;;;;4.98;78.37;98736.06;6245885;22;20016;-78
2021/11/28 08:52:21;;;;;;;1.38;1.38;;;;;;;4.96;79.39;98739.63;6217628;22;20020;-79
2021/11/28 08:54:47;;;;;;;1.40;1.40;;;;;;;4.97;78.25;98739.59;6270229;22;20137;-81
2021/11/28 08:57:13;;;;;;;2.95;2.78;;;;;;;4.95;78.94;98746.56;6191523;22;20055;-80
2021/11/28 08:59:40;;;;;;;0.95;0.95;;;;;;;4.92;79.92;98756.22;6269612;22;20016;-79
2021/11/28 09:02:06;;;;;;;2.15;1.95;;;;;;;4.93;80.60;98765.66;6269803;22;20012;-78
2021/11/28 09:04:32;;;;;;;1.30;1.30;;;;;;;4.93;80.10;98766.50;6267434;22;20068;-79
2021/11/28 09:06:58;;;;;;;2.15;1.55;;;;;;;4.89;80.78;98762.38;6239606;22;20015;-79
2021/11/28 09:09:24;;;;;;;3.10;1.60;;;;;;;4.91;79.69;98760.53;6268907;22;20028;-79
2021/11/28 09:11:50;;;;;;;1.48;1.48;;;;;;;4.87;80.37;98756.47;6269019;22;20024;-81
2021/11/28 09:14:16;;;;;;;1.83;1.83;;;;;;;4.87;80.62;98759.06;6268667;22;20162;-79
2021/11/28 09:16:42;;;;;;;4.38;1.55;;;;;;;4.84;81.05;98769.53;6241342;22;20057;-80
2021/11/28 09:19:19;;;;;;;1.33;1.33;;;;;;;4.82;81.57;98766.19;6241192;22;20016;-79
2021/11/28 09:21:45;;;;;;;2.67;2.42;;;;;;;4.80;81.37;98769.75;6244624;22;20019;-79
2021/11/28 09:26:57;;;;;;;2.97;2.53;;;;;;;4.74;82.04;98768.31;6224718;22;20074;-81
2021/11/28 09:29:24;;;;;;;4.53;4.13;;;;;;;4.70;81.88;98764.19;6230033;22;20099;-81
2021/11/28 09:31:50;;;;;;;2.20;2.10;;;;;;;4.62;83.36;98780.06;6279655;22;20066;-80
2021/11/28 09:34:17;;;;;;;1.77;1.70;;;;;;;4.60;83.67;98775.88;6273484;22;20047;-77
2021/11/28 09:36:43;;;;;;;1.40;1.40;;;;;;;4.56;84.37;98779.53;6245784;22;20106;-76
2021/11/28 09:39:09;;;;;;;2.38;2.25;;;;;;;4.46;85.58;98780.88;6271814;22;20023;-75
2021/11/28 09:41:36;;;;;;;2.13;2.05;;;;;;;4.37;86.17;98776.16;6245257;22;20043;-77
2021/11/28 09:44:04;;;;;;;1.65;1.65;;;;;;;4.40;85.74;98789.75;6244227;22;20020;-75
2021/11/28 09:46:30;;;;;;;2.20;2.10;;;;;;;4.33;86.60;98772.88;6238299;22;20019;-77
2021/11/28 09:49:01;;;;;;;1.70;1.70;;;;;;;4.35;86.55;98783.94;6242887;22;20042;-76
2021/11/28 09:51:30;;;;;;;2.35;2.25;;;;;;;4.31;86.95;98789.34;6271250;22;20015;-76
2021/11/28 09:53:56;;;;;;;4.00;3.70;;;;;;;4.31;86.74;98800.53;6242869;22;20015;-76
2021/11/28 09:56:24;;;;;;;1.50;1.50;;;;;;;4.29;87.41;98801.50;6271035;22;20103;-76
2021/11/28 09:58:50;;;;;;;1.70;1.70;;;;;;;4.22;87.51;98791.44;6274343;22;20016;-74
2021/11/28 10:01:16;;;;;;;1.38;1.38;;;;;;;4.23;88.08;98802.59;6223385;22;20018;-75
2021/11/28 10:03:42;;;;;;;1.88;1.88;;;;;;;4.26;87.86;98804.22;6241775;22;20023;-77
2021/11/28 10:06:08;;;;;;;1.83;1.80;;;;;;;4.22;88.28;98805.28;6270101;22;20038;-77
2021/11/28 10:08:34;;;;;;;1.67;1.63;;;;;;;4.22;88.25;98810.44;6270442;22;20024;-76
2021/11/28 10:11:19;;;;;;;3.05;2.58;;;;;;;4.19;88.06;98821.72;6244429;22;20026;-76
2021/11/28 10:13:50;;;;;;;2.55;2.45;;;;;;;4.20;88.27;98808.75;6271056;22;20054;-76
2021/11/28 10:16:16;;;;;;;2.85;2.65;;;;;;;4.19;88.50;98827.75;6270370;22;20043;-76
2021/11/28 10:18:43;;;;;;;1.15;1.15;;;;;;;4.19;87.98;98838.06;6270507;22;20020;-76
2021/11/28 10:21:09;;;;;;;2.63;2.53;;;;;;;4.20;87.38;98841.50;6243262;22;20019;-80
2021/11/28 10:23:56;;;;;;;2.30;2.20;;;;;;;4.21;88.18;98850.94;6268792;22;20015;-79
2021/11/28 10:26:23;;;;;;;1.90;1.75;;;;;;;4.27;86.93;98844.63;6247806;22;20020;-80
2021/11/28 10:29:11;;;;;;;10.40;3.72;;;;;;;4.28;87.12;98851.50;6243475;22;20015;-80
2021/11/28 10:31:55;;;;;;;2.15;1.90;;;;;;;4.27;87.12;98863.56;6218557;22;20023;-80
2021/11/28 10:34:36;;;;;;;1.73;1.73;;;;;;;4.27;86.50;98857.56;6269367;22;20102;-76
2021/11/28 10:37:21;;;;;;;;;;;;;;;4.31;85.49;98865.09;6194888;22;20038;-74
2021/11/28 10:39:55;;;;;;;4.65;4.15;;;;;;;4.36;85.51;98867.47;6219094;22;19922;-75
2021/11/28 10:42:25;;;;;;;3.40;3.20;;;;;;;4.35;84.98;98863.22;6241577;22;20023;-76
2021/11/28 10:45:13;;;;;;;2.00;1.90;;;;;;;4.39;83.68;98870.75;6242070;22;20023;-76
2021/11/28 10:47:54;;;;;;;6.78;4.80;;;;;;;4.39;83.21;98873.31;6269637;22;20022;-77
2021/11/28 10:50:28;;;;;;;1.52;1.52;;;;;;;4.43;82.51;98876.59;6191834;22;20019;-77
2021/11/28 10:53:21;;;;;;;1.45;1.38;;;;;;;4.39;82.57;98877.66;6271285;22;20073;-78
2021/11/28 10:55:54;;;;;;;1.80;1.70;;;;;;;4.45;80.70;98882.56;6246275;22;20020;-76
2021/11/28 10:58:30;;;;;;;6.85;2.13;;;;;;;4.43;81.61;98880.03;6267728;22;20125;-74
2021/11/28 11:01:08;;;;;;;0.98;0.85;;;;;;;4.43;81.15;98884.34;6268275;22;20016;-74
2021/11/28 11:03:39;;;;;;;1.90;1.80;;;;;;;4.47;79.39;98893.66;6268306;22;20506;-74
2021/11/28 11:06:24;;;;;;;7.15;5.57;;;;;;;4.49;78.50;98891.81;6267565;22;20570;-74
2021/11/28 11:08:54;;;;;;;1.30;1.30;;;;;;;4.46;79.79;98903.16;6268364;22;20019;-75
2021/11/28 11:11:20;;;;;;;1.70;1.08;;;;;;;4.53;78.02;98899.38;6241586;22;20419;-73
2021/11/28 11:13:57;;;;;;;1.67;1.58;;;;;;;4.56;77.69;98900.97;6268154;22;20508;-75
2021/11/28 11:16:29;;;;;;;1.48;1.48;;;;;;;4.53;78.94;98894.22;6241251;22;20027;-75
2021/11/28 11:19:16;;;;;;;2.45;2.13;;;;;;;4.56;78.55;98901.81;6270021;22;20022;-76
2021/11/28 11:22:05;;;;;;;2.25;2.15;;;;;;;4.58;78.86;98884.50;6220284;22;20027;-76
2021/11/28 11:24:33;;;;;;;1.77;1.67;;;;;;;4.59;77.50;98887.91;6241111;22;20022;-74
2021/11/28 11:27:12;;;;;;;3.80;3.60;;;;;;;4.57;78.93;98905.25;6267628;22;20099;-73
2021/11/28 11:29:39;;;;;;;2.10;2.00;;;;;;;4.51;79.66;98903.78;6241589;22;20039;-75
2021/11/28 11:32:14;;;;;;;0.93;0.93;;;;;;;4.51;78.87;98905.53;6267595;22;20026;-75
2021/11/28 11:34:51;;;;;;;0.80;0.80;;;;;;;4.50;78.85;98898.69;6267967;22;20024;-75
2021/11/28 11:37:18;;;;;;;1.83;1.83;;;;;;;4.50;79.28;98901.25;6267087;22;20023;-75
2021/11/28 11:39:46;;;;;;;1.50;1.50;;;;;;;4.49;79.47;98912.50;6268049;22;20015;-75
2021/11/28 11:42:15;;;;;;;2.05;1.95;;;;;;;4.48;79.25;98921.19;6268233;22;20098;-73
2021/11/28 11:44:46;;;;;;;1.65;1.65;;;;;;;4.46;80.46;98915.22;6215409;22;20112;-78
2021/11/28 11:47:12;;;;;;;3.53;2.47;;;;;;;4.45;80.74;98910.97;6215973;22;20115;-77
2021/11/28 11:49:39;;;;;;;4.88;4.47;;;;;;;4.42;80.14;98911.94;6267756;22;20087;-78
2021/11/28 11:52:06;;;;;;;0.98;0.98;;;;;;;4.42;79.11;98916.25;6268995;22;20106;-77
2021/11/28 11:54:39;;;;;;;1.70;1.60;;;;;;;4.36;80.58;98929.47;6242295;22;20020;-78
2021/11/28 11:57:11;;;;;;;1.77;1.67;;;;;;;4.36;80.23;98932.03;6270706;22;20057;-78
2021/11/28 11:59:59;;;;;;;3.53;3.33;;;;;;;4.31;80.28;98928.84;6243443;22;20015;-77
2021/11/28 12:02:35;;;;;;;1.30;1.30;;;;;;;4.33;80.71;98947.69;6243460;22;20020;-75
2021/11/28 12:05:02;;;;;;;2.00;1.90;;;;;;;4.26;80.60;98957.44;6242659;22;20022;-73
2021/11/28 19:15:14;;;;;;;1.40;1.40;;;;;;;3.02;74.98;99333.84;6330759;22;20402;-75